createdAt,value
2018-09-25T00:00:49.835Z,7.30
2018-09-25T00:03:24.189Z,7.30
2018-09-25T00:05:58.467Z,7.30
2018-09-25T00:08:32.827Z,7.40
2018-09-25T00:11:07.246Z,7.30
2018-09-25T00:13:41.536Z,7.30
2018-09-25T00:16:15.787Z,7.30
2018-09-25T00:18:49.943Z,7.30
2018-09-25T00:21:24.209Z,7.30
2018-09-25T00:23:58.545Z,7.40
2018-09-25T00:26:32.880Z,7.20
2018-09-25T00:29:07.179Z,7.30
2018-09-25T00:31:41.348Z,7.30
2018-09-25T00:34:15.819Z,7.20
2018-09-25T00:36:50.117Z,7.30
2018-09-25T00:39:24.302Z,7.20
2018-09-25T00:41:58.707Z,7.20
2018-09-25T00:44:33.008Z,7.20
2018-09-25T00:47:07.301Z,7.20
2018-09-25T00:49:41.502Z,7.20
2018-09-25T00:52:15.747Z,7.20
2018-09-25T00:54:49.890Z,7.20
2018-09-25T00:57:31.077Z,7.20
2018-09-25T01:00:05.331Z,7.20
2018-09-25T01:02:39.491Z,7.20
2018-09-25T01:05:13.874Z,7.20
2018-09-25T01:07:48.095Z,7.20
2018-09-25T01:10:22.258Z,7.20
2018-09-25T01:12:56.503Z,7.10
2018-09-25T01:15:30.952Z,7.20
2018-09-25T01:18:05.274Z,7.20
2018-09-25T01:20:39.662Z,7.20
2018-09-25T01:23:13.932Z,7.20
2018-09-25T01:25:48.307Z,7.20
2018-09-25T01:28:22.666Z,7.20
2018-09-25T01:30:56.956Z,7.20
2018-09-25T01:33:31.223Z,7.20
2018-09-25T01:36:05.475Z,7.20
2018-09-25T01:38:39.687Z,7.20
2018-09-25T01:41:14.302Z,7.20
2018-09-25T01:43:48.512Z,7.20
2018-09-25T01:46:22.831Z,7.10
2018-09-25T01:48:57.047Z,7.10
2018-09-25T01:51:31.411Z,7.10
2018-09-25T01:54:05.629Z,7.10
2018-09-25T01:56:40.035Z,7.10
2018-09-25T01:59:14.431Z,7.10
2018-09-25T02:01:48.804Z,7.10
2018-09-25T02:04:23.162Z,7.10
2018-09-25T02:06:57.642Z,7.00
2018-09-25T02:09:31.893Z,7.10
2018-09-25T02:12:06.243Z,7.10
2018-09-25T02:14:40.398Z,7.00
2018-09-25T02:17:14.849Z,7.00
2018-09-25T02:19:49.038Z,7.00
2018-09-25T02:22:23.283Z,7.00
2018-09-25T02:24:57.590Z,7.00
2018-09-25T02:27:31.883Z,6.90
2018-09-25T02:30:06.152Z,7.00
2018-09-25T02:32:40.427Z,7.00
2018-09-25T02:35:14.720Z,7.00
2018-09-25T02:37:48.990Z,7.00
2018-09-25T02:40:23.166Z,6.80
2018-09-25T02:42:57.380Z,6.90
2018-09-25T02:45:31.823Z,6.90
2018-09-25T02:48:06.194Z,6.90
2018-09-25T02:50:40.679Z,6.90
2018-09-25T02:53:14.891Z,6.80
2018-09-25T02:55:49.003Z,6.90
2018-09-25T02:58:23.170Z,6.90
2018-09-25T03:00:57.410Z,6.60
2018-09-25T03:03:31.750Z,6.40
2018-09-25T03:06:06.031Z,6.40
2018-09-25T03:08:40.310Z,6.50
2018-09-25T03:11:14.703Z,6.50
2018-09-25T03:13:48.971Z,6.60
2018-09-25T03:16:23.252Z,6.60
2018-09-25T03:18:57.591Z,6.50
2018-09-25T03:21:31.721Z,6.50
2018-09-25T03:24:05.970Z,6.60
2018-09-25T03:26:40.419Z,6.50
2018-09-25T03:29:14.840Z,6.50
2018-09-25T03:31:49.106Z,6.50
2018-09-25T03:34:23.420Z,6.50
2018-09-25T03:36:57.867Z,6.50
2018-09-25T03:39:32.331Z,6.60
2018-09-25T03:42:06.582Z,6.50
2018-09-25T03:44:40.980Z,6.60
2018-09-25T03:47:15.400Z,6.60
2018-09-25T03:49:49.818Z,6.60
2018-09-25T03:52:24.056Z,6.50
2018-09-25T03:54:58.535Z,6.30
2018-09-25T03:57:32.815Z,6.40
2018-09-25T04:00:07.012Z,6.40
2018-09-25T04:02:41.522Z,6.50
2018-09-25T04:05:15.884Z,6.50
2018-09-25T04:07:50.247Z,6.50
2018-09-25T04:10:24.529Z,6.40
2018-09-25T04:12:58.679Z,6.40
2018-09-25T04:15:33.212Z,6.40
2018-09-25T04:18:07.491Z,6.40
2018-09-25T04:20:41.679Z,6.40
2018-09-25T04:23:15.959Z,6.50
2018-09-25T04:25:50.364Z,6.50
2018-09-25T04:28:24.809Z,6.40
2018-09-25T04:30:59.162Z,6.40
2018-09-25T04:33:33.306Z,6.40
2018-09-25T04:36:07.674Z,6.50
2018-09-25T04:38:42.043Z,6.50
2018-09-25T04:41:16.571Z,6.40
2018-09-25T04:43:50.958Z,6.50
2018-09-25T04:46:25.398Z,6.50
2018-09-25T04:48:59.753Z,6.50
2018-09-25T04:51:34.214Z,6.50
2018-09-25T04:54:08.579Z,6.50
2018-09-25T04:56:42.998Z,6.50
2018-09-25T04:59:17.343Z,6.50
2018-09-25T05:01:51.638Z,6.50
2018-09-25T05:04:26.023Z,6.50
2018-09-25T05:07:00.415Z,6.50
2018-09-25T05:09:34.599Z,6.50
2018-09-25T05:12:08.990Z,6.50
2018-09-25T05:14:43.395Z,6.50
2018-09-25T05:17:17.632Z,6.30
2018-09-25T05:19:52.095Z,6.40
2018-09-25T05:22:26.341Z,6.40
2018-09-25T05:25:00.778Z,6.30
2018-09-25T05:27:35.294Z,6.50
2018-09-25T05:30:09.678Z,6.50
2018-09-25T05:32:44.027Z,6.60
2018-09-25T05:35:18.389Z,6.70
2018-09-25T05:37:52.966Z,6.70
2018-09-25T05:40:28.362Z,6.80
2018-09-25T05:43:02.487Z,6.80
2018-09-25T05:45:37.370Z,6.80
2018-09-25T05:48:11.790Z,6.80
2018-09-25T05:50:46.192Z,6.80
2018-09-25T05:53:20.685Z,6.80
2018-09-25T05:55:54.938Z,6.80
2018-09-25T05:58:29.190Z,6.70
2018-09-25T06:01:03.291Z,6.80
2018-09-25T06:03:38.622Z,6.80
2018-09-25T06:06:13.779Z,6.90
2018-09-25T06:08:48.275Z,6.90
2018-09-25T06:11:22.678Z,6.90
2018-09-25T06:13:57.375Z,6.90
2018-09-25T06:16:31.865Z,7.00
2018-09-25T06:19:07.809Z,7.00
2018-09-25T06:21:42.332Z,7.00
2018-09-25T06:24:16.757Z,7.00
2018-09-25T06:26:51.000Z,7.10
2018-09-25T06:29:25.172Z,7.10
2018-09-25T06:31:59.343Z,7.30
2018-09-25T06:34:33.633Z,7.30
2018-09-25T06:37:08.031Z,7.50
2018-09-25T06:39:42.308Z,7.40
2018-09-25T06:42:16.338Z,7.30
2018-09-25T06:44:50.746Z,7.30
2018-09-25T06:47:24.968Z,7.20
2018-09-25T06:49:59.228Z,7.30
2018-09-25T06:52:33.463Z,7.30
2018-09-25T06:55:07.769Z,7.60
2018-09-25T06:57:42.015Z,7.50
2018-09-25T07:00:16.460Z,7.40
2018-09-25T07:02:50.695Z,7.50
2018-09-25T07:05:24.975Z,7.60
2018-09-25T07:07:59.252Z,7.80
2018-09-25T07:10:33.662Z,7.80
2018-09-25T07:13:07.788Z,8.00
2018-09-25T07:15:42.002Z,8.00
2018-09-25T07:18:16.463Z,8.00
2018-09-25T07:20:51.018Z,8.20
2018-09-25T07:23:25.246Z,8.40
2018-09-25T07:25:59.446Z,8.30
2018-09-25T07:28:39.679Z,8.50
2018-09-25T07:31:13.867Z,8.40
2018-09-25T07:33:48.019Z,8.60
2018-09-25T07:36:22.299Z,8.80
2018-09-25T07:38:56.451Z,8.80
2018-09-25T07:41:30.725Z,8.70
2018-09-25T07:44:05.149Z,8.80
2018-09-25T07:46:39.567Z,8.90
2018-09-25T07:49:14.112Z,8.80
2018-09-25T07:51:50.447Z,8.90
2018-09-25T07:54:29.640Z,9.00
2018-09-25T07:57:03.960Z,9.00
2018-09-25T07:59:38.207Z,9.10
2018-09-25T08:02:12.659Z,9.10
2018-09-25T08:04:46.919Z,9.40
2018-09-25T08:07:21.044Z,9.40
2018-09-25T08:09:55.359Z,9.40
2018-09-25T08:12:29.701Z,9.50
2018-09-25T08:15:03.839Z,9.60
2018-09-25T08:17:38.097Z,9.60
2018-09-25T08:20:12.278Z,9.60
2018-09-25T08:22:46.503Z,9.70
2018-09-25T08:25:21.002Z,9.60
2018-09-25T08:27:56.170Z,9.60
2018-09-25T08:30:30.567Z,9.60
2018-09-25T08:33:04.655Z,9.70
2018-09-25T08:35:39.002Z,9.80
2018-09-25T08:38:13.457Z,9.60
2018-09-25T08:40:47.679Z,9.50
2018-09-25T08:43:22.052Z,9.60
2018-09-25T08:45:56.393Z,9.60
2018-09-25T08:48:30.850Z,10.00
2018-09-25T08:51:05.082Z,10.00
2018-09-25T08:53:39.577Z,10.20
2018-09-25T08:56:13.840Z,10.40
2018-09-25T08:58:48.140Z,10.50
2018-09-25T09:01:23.154Z,10.60
2018-09-25T09:03:57.515Z,10.30
2018-09-25T09:06:31.699Z,10.30
2018-09-25T09:09:06.302Z,10.30
2018-09-25T09:11:42.989Z,10.50
2018-09-25T09:14:19.162Z,10.70
2018-09-25T09:16:53.475Z,10.70
2018-09-25T09:19:28.425Z,10.80
2018-09-25T09:22:04.817Z,10.90
2018-09-25T09:24:39.047Z,10.80
2018-09-25T09:27:13.436Z,10.80
2018-09-25T09:29:47.702Z,10.90
2018-09-25T09:32:21.929Z,11.10
2018-09-25T09:34:56.372Z,11.10
2018-09-25T09:37:30.631Z,11.30
2018-09-25T09:40:04.792Z,11.40
2018-09-25T09:42:39.320Z,11.50
2018-09-25T09:45:13.598Z,11.70
2018-09-25T09:47:47.998Z,11.40
2018-09-25T09:50:22.318Z,11.60
2018-09-25T09:53:02.999Z,11.60
2018-09-25T09:55:37.322Z,11.80
2018-09-25T09:58:12.077Z,11.70
2018-09-25T10:00:47.475Z,11.40
2018-09-25T10:03:21.822Z,11.20
2018-09-25T10:05:56.099Z,11.50
2018-09-25T10:08:30.376Z,11.60
2018-09-25T10:11:04.532Z,11.40
2018-09-25T10:13:38.859Z,11.40
2018-09-25T10:16:13.219Z,11.60
2018-09-25T10:18:47.405Z,11.80
2018-09-25T10:21:21.676Z,12.00
2018-09-25T10:23:55.840Z,11.90
2018-09-25T10:26:30.175Z,12.00
2018-09-25T10:29:04.399Z,12.20
2018-09-25T10:31:39.590Z,12.40
2018-09-25T10:34:13.940Z,12.20
2018-09-25T10:36:48.267Z,12.00
2018-09-25T10:39:22.471Z,12.00
2018-09-25T10:41:56.795Z,12.20
2018-09-25T10:44:31.027Z,12.40
2018-09-25T10:47:05.439Z,12.40
2018-09-25T10:49:39.937Z,12.40
2018-09-25T10:52:14.239Z,12.10
2018-09-25T10:54:48.520Z,11.90
2018-09-25T10:57:22.647Z,12.00
2018-09-25T10:59:57.215Z,12.10
2018-09-25T11:02:31.407Z,12.10
2018-09-25T11:05:05.924Z,12.20
2018-09-25T11:07:40.321Z,12.30
2018-09-25T11:10:14.544Z,12.40
2018-09-25T11:12:48.754Z,12.60
2018-09-25T11:15:23.119Z,12.50
2018-09-25T11:17:57.353Z,12.70
2018-09-25T11:20:31.467Z,12.70
2018-09-25T11:23:05.801Z,12.70
2018-09-25T11:25:40.096Z,12.70
2018-09-25T11:28:15.391Z,12.70
2018-09-25T11:30:50.071Z,12.60
2018-09-25T11:33:25.591Z,12.60
2018-09-25T11:35:59.899Z,12.50
2018-09-25T11:38:34.347Z,12.70
2018-09-25T11:41:09.035Z,12.50
2018-09-25T11:43:43.497Z,12.40
2018-09-25T11:46:18.020Z,12.30
2018-09-25T11:48:52.728Z,12.30
2018-09-25T11:51:27.539Z,12.40
2018-09-25T11:54:02.252Z,12.50
2018-09-25T11:56:36.834Z,12.20
2018-09-25T11:59:12.131Z,12.00
2018-09-25T12:01:46.653Z,11.90
2018-09-25T12:04:21.076Z,12.00
2018-09-25T12:06:55.583Z,12.00
2018-09-25T12:09:29.814Z,11.90
2018-09-25T12:12:04.111Z,12.10
2018-09-25T12:14:38.573Z,12.00
2018-09-25T12:17:13.302Z,12.10
2018-09-25T12:19:48.448Z,12.20
2018-09-25T12:22:22.656Z,12.30
2018-09-25T12:24:57.419Z,12.20
2018-09-25T12:27:31.975Z,12.40
2018-09-25T12:30:06.622Z,12.50
2018-09-25T12:32:41.280Z,12.50
2018-09-25T12:35:15.851Z,12.40
2018-09-25T12:37:50.239Z,12.40
2018-09-25T12:40:24.900Z,12.60
2018-09-25T12:43:02.679Z,12.60
2018-09-25T12:45:37.462Z,12.50
2018-09-25T12:48:11.841Z,12.50
2018-09-25T12:50:46.669Z,12.70
2018-09-25T12:53:20.846Z,12.70
2018-09-25T12:55:55.338Z,12.60
2018-09-25T12:58:29.530Z,12.60
2018-09-25T13:01:03.810Z,12.60
2018-09-25T13:03:38.183Z,12.60
2018-09-25T13:06:12.397Z,12.90
2018-09-25T13:08:46.623Z,12.40
2018-09-25T13:11:20.896Z,12.40
2018-09-25T13:13:56.790Z,12.30
2018-09-25T13:16:31.385Z,12.30
2018-09-25T13:19:05.552Z,12.40
2018-09-25T13:21:45.228Z,12.50
2018-09-25T13:24:22.369Z,12.40
2018-09-25T13:26:57.299Z,12.60
2018-09-25T13:29:31.446Z,12.50
2018-09-25T13:32:05.455Z,12.50
2018-09-25T13:34:39.534Z,12.70
2018-09-25T13:37:13.705Z,12.80
2018-09-25T13:39:48.070Z,12.70
2018-09-25T13:42:21.967Z,12.60
2018-09-25T13:44:56.015Z,12.60
2018-09-25T13:47:30.480Z,12.70
2018-09-25T13:50:04.368Z,12.70
2018-09-25T13:52:42.006Z,12.70
2018-09-25T13:55:16.197Z,12.60
2018-09-25T13:57:50.209Z,12.60
2018-09-25T14:00:24.135Z,12.60
2018-09-25T14:02:58.182Z,12.60
2018-09-25T14:05:32.239Z,12.50
2018-09-25T14:08:06.531Z,12.50
2018-09-25T14:10:40.441Z,12.50
2018-09-25T14:13:14.634Z,12.50
2018-09-25T14:15:48.627Z,12.50
2018-09-25T14:18:22.579Z,12.50
2018-09-25T14:20:56.606Z,12.50
2018-09-25T14:23:30.503Z,12.30
2018-09-25T14:26:04.423Z,12.40
2018-09-25T14:28:38.503Z,12.20
2018-09-25T14:31:12.607Z,12.20
2018-09-25T14:33:46.690Z,12.00
2018-09-25T14:36:20.638Z,12.00
2018-09-25T14:38:54.861Z,12.00
2018-09-25T14:41:28.745Z,12.10
2018-09-25T14:44:02.850Z,11.90
2018-09-25T14:46:36.775Z,12.10
2018-09-25T14:49:10.940Z,12.20
2018-09-25T14:51:44.903Z,12.10
2018-09-25T14:54:18.888Z,12.00
2018-09-25T14:56:53.337Z,12.10
2018-09-25T14:59:27.606Z,12.10
2018-09-25T15:02:01.644Z,12.10
2018-09-25T15:04:35.638Z,12.00
2018-09-25T15:07:09.653Z,12.00
2018-09-25T15:09:43.775Z,12.00
2018-09-25T15:12:17.819Z,11.90
2018-09-25T15:14:51.726Z,11.90
2018-09-25T15:17:31.566Z,11.90
2018-09-25T15:20:05.607Z,11.80
2018-09-25T15:22:39.651Z,11.80
2018-09-25T15:25:13.819Z,11.80
2018-09-25T15:27:47.840Z,11.80
2018-09-25T15:30:21.767Z,12.30
2018-09-25T15:32:55.784Z,11.70
2018-09-25T15:35:29.944Z,11.70
2018-09-25T15:38:03.991Z,11.60
2018-09-25T15:40:38.752Z,11.70
2018-09-25T15:43:12.699Z,11.70
2018-09-25T15:45:46.915Z,11.50
2018-09-25T15:48:20.828Z,11.50
2018-09-25T15:50:54.736Z,11.50
2018-09-25T15:53:28.611Z,11.50
2018-09-25T15:56:02.533Z,11.50
2018-09-25T15:58:36.392Z,11.50
2018-09-25T16:01:10.567Z,11.40
2018-09-25T16:03:44.574Z,11.40
2018-09-25T16:06:18.487Z,11.40
2018-09-25T16:08:52.516Z,11.30
2018-09-25T16:11:26.542Z,11.10
2018-09-25T16:14:00.465Z,11.10
2018-09-25T16:16:34.401Z,11.20
2018-09-25T16:19:08.473Z,11.10
2018-09-25T16:21:42.717Z,11.00
2018-09-25T16:24:16.779Z,10.90
2018-09-25T16:26:50.875Z,11.00
2018-09-25T16:29:24.944Z,11.00
2018-09-25T16:31:59.040Z,11.00
2018-09-25T16:34:33.088Z,11.00
2018-09-25T16:37:07.160Z,11.00
2018-09-25T16:39:41.078Z,10.90
2018-09-25T16:42:15.166Z,11.00
2018-09-25T16:44:49.603Z,10.80
2018-09-25T16:47:23.997Z,10.60
2018-09-25T16:49:58.045Z,10.60
2018-09-25T16:52:31.938Z,10.50
2018-09-25T16:55:05.851Z,10.40
2018-09-25T16:57:40.055Z,10.30
2018-09-25T17:00:14.003Z,10.20
2018-09-25T17:02:47.943Z,10.20
2018-09-25T17:05:21.995Z,10.30
2018-09-25T17:07:56.228Z,10.20
2018-09-25T17:10:30.275Z,10.10
2018-09-25T17:13:04.563Z,10.10
2018-09-25T17:15:39.968Z,10.10
2018-09-25T17:18:14.128Z,10.00
2018-09-25T17:20:48.414Z,10.00
2018-09-25T17:23:22.498Z,9.90
2018-09-25T17:25:56.510Z,9.90
2018-09-25T17:28:30.604Z,9.80
2018-09-25T17:31:06.183Z,9.80
2018-09-25T17:33:40.254Z,9.80
2018-09-25T17:36:14.283Z,9.80
2018-09-25T17:38:49.643Z,9.70
2018-09-25T17:41:24.233Z,9.70
2018-09-25T17:43:58.483Z,9.70
2018-09-25T17:46:32.475Z,9.70
2018-09-25T17:49:06.719Z,9.70
2018-09-25T17:51:40.772Z,9.50
2018-09-25T17:54:14.919Z,9.50
2018-09-25T17:56:48.860Z,9.50
2018-09-25T17:59:22.907Z,9.50
2018-09-25T18:01:56.965Z,9.40
2018-09-25T18:04:31.013Z,9.40
2018-09-25T18:07:04.895Z,9.30
2018-09-25T18:09:39.017Z,9.30
2018-09-25T18:12:13.103Z,9.30
2018-09-25T18:14:47.048Z,9.20
2018-09-25T18:17:21.212Z,9.10
2018-09-25T18:19:56.087Z,9.00
2018-09-25T18:22:30.852Z,9.00
2018-09-25T18:25:05.909Z,9.00
2018-09-25T18:27:40.205Z,8.90
2018-09-25T18:30:16.858Z,8.90
2018-09-25T18:32:52.042Z,8.90
2018-09-25T18:35:26.350Z,8.90
2018-09-25T18:38:00.600Z,8.70
2018-09-25T18:40:35.982Z,8.70
2018-09-25T18:43:11.820Z,8.70
2018-09-25T18:45:46.101Z,8.70
2018-09-25T18:48:20.532Z,8.70
2018-09-25T18:50:54.928Z,8.60
2018-09-25T18:53:29.412Z,8.50
2018-09-25T18:56:03.899Z,8.50
2018-09-25T18:58:39.078Z,8.50
2018-09-25T19:01:14.622Z,8.50
2018-09-25T19:03:49.784Z,8.50
2018-09-25T19:06:24.239Z,8.40
2018-09-25T19:08:59.151Z,8.30
2018-09-25T19:11:35.106Z,8.30
2018-09-25T19:14:12.966Z,8.30
2018-09-25T19:16:47.567Z,8.30
2018-09-25T19:19:22.923Z,8.30
2018-09-25T19:21:57.380Z,8.40
2018-09-25T19:24:31.510Z,8.40
2018-09-25T19:27:07.072Z,8.40
2018-09-25T19:29:41.384Z,8.40
2018-09-25T19:32:16.068Z,8.40
2018-09-25T19:34:51.533Z,8.40
2018-09-25T19:37:32.075Z,8.30
2018-09-25T19:40:06.659Z,8.10
2018-09-25T19:42:41.455Z,8.20
2018-09-25T19:45:15.699Z,8.20
2018-09-25T19:47:50.376Z,8.30
2018-09-25T19:50:24.815Z,8.30
2018-09-25T19:52:59.936Z,8.20
2018-09-25T19:55:34.471Z,8.20
2018-09-25T19:58:08.912Z,8.10
2018-09-25T20:00:43.291Z,8.00
2018-09-25T20:03:24.772Z,8.00
2018-09-25T20:05:59.322Z,8.00
2018-09-25T20:08:33.916Z,7.90
2018-09-25T20:11:08.389Z,7.90
2018-09-25T20:13:43.467Z,7.80
2018-09-25T20:16:17.636Z,7.70
2018-09-25T20:18:52.055Z,7.70
2018-09-25T20:21:26.302Z,7.70
2018-09-25T20:24:00.655Z,7.80
2018-09-25T20:26:34.950Z,7.80
2018-09-25T20:29:09.360Z,7.80
2018-09-25T20:31:43.766Z,7.80
2018-09-25T20:34:18.129Z,7.70
2018-09-25T20:36:52.349Z,7.80
2018-09-25T20:39:26.990Z,7.70
2018-09-25T20:42:01.288Z,7.70
2018-09-25T20:44:35.548Z,7.60
2018-09-25T20:47:09.843Z,7.50
2018-09-25T20:49:44.196Z,7.60
2018-09-25T20:52:18.592Z,7.70
2018-09-25T20:54:52.808Z,7.70
2018-09-25T20:57:27.156Z,7.80
2018-09-25T21:00:01.419Z,7.90
2018-09-25T21:02:35.804Z,7.90
2018-09-25T21:05:09.963Z,7.80
2018-09-25T21:07:44.233Z,7.70
2018-09-25T21:10:18.462Z,7.60
2018-09-25T21:12:52.690Z,7.70
2018-09-25T21:15:27.052Z,7.60
2018-09-25T21:18:01.404Z,7.70
2018-09-25T21:20:35.767Z,7.60
2018-09-25T21:23:09.928Z,7.50
2018-09-25T21:25:44.295Z,7.60
2018-09-25T21:28:18.483Z,7.50
2018-09-25T21:30:52.707Z,7.60
2018-09-25T21:33:27.036Z,7.70
2018-09-25T21:36:01.324Z,7.60
2018-09-25T21:38:35.553Z,7.60
2018-09-25T21:41:09.979Z,7.70
2018-09-25T21:43:44.223Z,7.60
2018-09-25T21:46:18.463Z,7.60
2018-09-25T21:48:52.990Z,7.50
2018-09-25T21:51:27.648Z,7.40
2018-09-25T21:54:01.789Z,7.30
2018-09-25T21:56:35.912Z,7.30
2018-09-25T21:59:10.210Z,7.40
2018-09-25T22:01:44.334Z,7.40
2018-09-25T22:04:18.674Z,7.40
2018-09-25T22:06:53.087Z,7.40
2018-09-25T22:09:27.454Z,7.30
2018-09-25T22:12:02.189Z,7.20
2018-09-25T22:14:36.463Z,7.30
2018-09-25T22:17:10.958Z,7.20
2018-09-25T22:19:45.221Z,7.20
2018-09-25T22:22:19.663Z,7.20
2018-09-25T22:24:53.835Z,7.10
2018-09-25T22:27:28.259Z,7.10
2018-09-25T22:30:02.719Z,7.10
2018-09-25T22:32:36.937Z,7.10
2018-09-25T22:35:11.340Z,7.10
2018-09-25T22:37:45.636Z,7.00
2018-09-25T22:40:19.942Z,6.90
2018-09-25T22:42:54.315Z,6.90
2018-09-25T22:45:28.774Z,6.80
2018-09-25T22:48:03.024Z,6.90
2018-09-25T22:50:37.458Z,6.90
2018-09-25T22:53:11.702Z,7.10
2018-09-25T22:55:46.020Z,7.10
2018-09-25T22:58:20.219Z,7.00
2018-09-25T23:00:54.523Z,6.90
2018-09-25T23:03:29.076Z,6.90
2018-09-25T23:06:03.334Z,6.90
2018-09-25T23:08:37.723Z,7.00
2018-09-25T23:11:12.135Z,6.90
2018-09-25T23:13:46.385Z,6.90
2018-09-25T23:16:20.756Z,6.90
2018-09-25T23:18:55.175Z,7.00
2018-09-25T23:21:29.447Z,6.90
2018-09-25T23:24:03.715Z,6.80
2018-09-25T23:26:38.019Z,6.80
2018-09-25T23:29:12.403Z,6.80
2018-09-25T23:31:46.695Z,6.70
2018-09-25T23:34:20.938Z,6.60
2018-09-25T23:36:55.274Z,6.50
2018-09-25T23:39:32.396Z,6.50
2018-09-25T23:42:06.679Z,6.60
2018-09-25T23:44:44.728Z,6.70
2018-09-25T23:47:19.159Z,6.70
2018-09-25T23:49:52.516Z,6.80
2018-09-25T23:52:26.975Z,6.80
2018-09-25T23:56:00.299Z,6.90
2018-09-25T23:58:34.427Z,7.00
